DLH109 EDDH-LOWW
Flight info
| Callsign | DLH109 |
|---|---|
| Flight time | 1h 26m |
| Altitude | 35000 |
| Route | AMLUH2G AMLUH M852 DENIX DCT ZUCKA DCT OMELO DCT EVIKU DCT BITSI DCT MIKOV MIKOV8W |
| Aircraft | A20N/M-SDE2E3FGHIRWXY/LB1 |
Departure
| Time | 2026-04-22 18:06 |
|---|---|
| Airport | Hamburg Helmut Schmidt Airport (EDDH) |
Arrival
| Time | 2026-04-22 19:33 |
|---|---|
| Airport | Vienna International Airport (LOWW) |
| Time | Latitude | Longitude | Altitude | Speed | Heading |
|---|---|---|---|---|---|
| 2026-04-22 17:44 | 53.63449 | 10.00311 | 50 ft | 0 kts | 88° |
| 2026-04-22 17:58 | 53.63449 | 10.00298 | 50 ft | 2 kts | 88° |
| 2026-04-22 17:59 | 53.63448 | 10.00262 | 48 ft | 2 kts | 88° |
| 2026-04-22 17:59 | 53.63448 | 10.00237 | 46 ft | 2 kts | 117° |
| 2026-04-22 17:59 | 53.63455 | 10.00222 | 46 ft | 0 kts | 170° |
| 2026-04-22 18:01 | 53.63449 | 10.00223 | 45 ft | 4 kts | 173° |
| 2026-04-22 18:01 | 53.63401 | 10.00200 | 50 ft | 9 kts | 224° |
| 2026-04-22 18:01 | 53.63334 | 10.00166 | 50 ft | 12 kts | 176° |
| 2026-04-22 18:01 | 53.63242 | 10.00176 | 50 ft | 15 kts | 174° |
| 2026-04-22 18:02 | 53.63131 | 10.00190 | 50 ft | 17 kts | 175° |
| 2026-04-22 18:02 | 53.63058 | 10.00175 | 48 ft | 16 kts | 211° |
| 2026-04-22 18:02 | 53.63043 | 10.00158 | 49 ft | 3 kts | 215° |
| 2026-04-22 18:02 | 53.63008 | 10.00118 | 50 ft | 10 kts | 213° |
| 2026-04-22 18:03 | 53.62938 | 10.00040 | 50 ft | 14 kts | 219° |
| 2026-04-22 18:03 | 53.62896 | 9.99912 | 50 ft | 3 kts | 244° |
| 2026-04-22 18:03 | 53.62894 | 9.99906 | 50 ft | 0 kts | 244° |
| 2026-04-22 18:04 | 53.62887 | 9.99883 | 48 ft | 8 kts | 243° |
| 2026-04-22 18:04 | 53.62868 | 9.99762 | 49 ft | 13 kts | 285° |
| 2026-04-22 18:04 | 53.62910 | 9.99705 | 49 ft | 0 kts | 333° |
| 2026-04-22 18:05 | 53.62912 | 9.99703 | 46 ft | 6 kts | 333° |
| 2026-04-22 18:06 | 53.63224 | 9.99433 | 49 ft | 92 kts | 333° |
| 2026-04-22 18:06 | 53.64009 | 9.98772 | 105 ft | 152 kts | 332° |
| 2026-04-22 18:06 | 53.65010 | 9.97990 | 639 ft | 157 kts | 332° |
| 2026-04-22 18:06 | 53.65962 | 9.97193 | 1224 ft | 150 kts | 330° |
| 2026-04-22 18:07 | 53.66870 | 9.96377 | 2052 ft | 150 kts | 330° |
| 2026-04-22 18:07 | 53.67843 | 9.95499 | 2601 ft | 168 kts | 332° |
| 2026-04-22 18:07 | 53.69011 | 9.94777 | 3097 ft | 191 kts | 346° |
| 2026-04-22 18:07 | 53.70400 | 9.94613 | 3591 ft | 209 kts | 359° |
| 2026-04-22 18:08 | 53.71867 | 9.94661 | 4516 ft | 209 kts | 1° |
| 2026-04-22 18:08 | 53.73272 | 9.95252 | 5509 ft | 211 kts | 25° |
| 2026-04-22 18:08 | 53.74419 | 9.96845 | 6367 ft | 220 kts | 51° |
| 2026-04-22 18:08 | 53.75003 | 9.99260 | 7207 ft | 229 kts | 81° |
| 2026-04-22 18:09 | 53.74801 | 10.01952 | 8030 ft | 238 kts | 111° |
| 2026-04-22 18:09 | 53.73955 | 10.04410 | 8820 ft | 248 kts | 118° |
| 2026-04-22 18:09 | 53.73039 | 10.07018 | 9292 ft | 269 kts | 117° |
| 2026-04-22 18:09 | 53.72077 | 10.09877 | 9773 ft | 289 kts | 117° |
| 2026-04-22 18:10 | 53.71084 | 10.12863 | 10564 ft | 295 kts | 116° |
| 2026-04-22 18:10 | 53.70048 | 10.15979 | 11021 ft | 315 kts | 117° |
| 2026-04-22 18:10 | 53.68722 | 10.19028 | 11326 ft | 340 kts | 134° |
| 2026-04-22 18:10 | 53.66709 | 10.21245 | 11953 ft | 352 kts | 156° |
| 2026-04-22 18:11 | 53.64348 | 10.22446 | 12809 ft | 356 kts | 163° |
| 2026-04-22 18:11 | 53.61944 | 10.23538 | 13648 ft | 359 kts | 163° |
| 2026-04-22 18:11 | 53.59512 | 10.24638 | 14441 ft | 363 kts | 163° |
| 2026-04-22 18:11 | 53.57063 | 10.25751 | 15157 ft | 366 kts | 163° |
| 2026-04-22 18:12 | 53.54599 | 10.26875 | 15884 ft | 369 kts | 163° |
| 2026-04-22 18:12 | 53.52105 | 10.28016 | 16596 ft | 372 kts | 163° |
| 2026-04-22 18:12 | 53.49591 | 10.29167 | 17289 ft | 376 kts | 163° |
| 2026-04-22 18:12 | 53.47057 | 10.30326 | 17993 ft | 379 kts | 163° |
| 2026-04-22 18:13 | 53.44502 | 10.31494 | 18666 ft | 383 kts | 163° |
| 2026-04-22 18:13 | 53.41923 | 10.32669 | 19278 ft | 385 kts | 163° |
| 2026-04-22 18:13 | 53.39360 | 10.33828 | 19919 ft | 387 kts | 163° |
| 2026-04-22 18:13 | 53.36750 | 10.35002 | 20533 ft | 389 kts | 163° |
| 2026-04-22 18:14 | 53.34128 | 10.36180 | 21161 ft | 391 kts | 163° |
| 2026-04-22 18:14 | 53.31498 | 10.37360 | 21774 ft | 393 kts | 163° |
| 2026-04-22 18:14 | 53.28846 | 10.38549 | 22376 ft | 396 kts | 163° |
| 2026-04-22 18:14 | 53.26182 | 10.39742 | 22988 ft | 398 kts | 163° |
| 2026-04-22 18:15 | 53.23495 | 10.40944 | 23585 ft | 400 kts | 163° |
| 2026-04-22 18:15 | 53.20793 | 10.42152 | 24078 ft | 403 kts | 163° |
| 2026-04-22 18:15 | 53.18077 | 10.43363 | 24272 ft | 404 kts | 162° |
| 2026-04-22 18:15 | 53.15370 | 10.44569 | 24308 ft | 403 kts | 162° |
| 2026-04-22 18:16 | 53.12646 | 10.45747 | 24312 ft | 404 kts | 165° |
| 2026-04-22 18:16 | 53.09915 | 10.46620 | 24315 ft | 405 kts | 167° |
| 2026-04-22 18:16 | 53.07140 | 10.47476 | 24313 ft | 405 kts | 167° |
| 2026-04-22 18:16 | 53.04369 | 10.48335 | 24314 ft | 405 kts | 167° |
| 2026-04-22 18:17 | 53.01599 | 10.49195 | 24315 ft | 405 kts | 167° |
| 2026-04-22 18:17 | 52.98826 | 10.50057 | 24314 ft | 405 kts | 167° |
| 2026-04-22 18:17 | 52.96051 | 10.50918 | 24318 ft | 406 kts | 167° |
| 2026-04-22 18:17 | 52.93268 | 10.51783 | 24596 ft | 409 kts | 167° |
| 2026-04-22 18:18 | 52.90462 | 10.52650 | 25192 ft | 408 kts | 166° |
| 2026-04-22 18:18 | 52.87697 | 10.53504 | 25667 ft | 410 kts | 166° |
| 2026-04-22 18:18 | 52.84879 | 10.54374 | 26124 ft | 412 kts | 166° |
| 2026-04-22 18:18 | 52.82055 | 10.55245 | 26594 ft | 414 kts | 166° |
| 2026-04-22 18:19 | 52.79215 | 10.56119 | 27037 ft | 416 kts | 166° |
| 2026-04-22 18:19 | 52.76351 | 10.57000 | 27476 ft | 418 kts | 166° |
| 2026-04-22 18:19 | 52.73478 | 10.57883 | 27903 ft | 421 kts | 165° |
| 2026-04-22 18:19 | 52.70598 | 10.58766 | 28317 ft | 422 kts | 165° |
| 2026-04-22 18:20 | 52.67696 | 10.59655 | 28718 ft | 425 kts | 165° |
| 2026-04-22 18:20 | 52.64780 | 10.60546 | 29100 ft | 426 kts | 165° |
| 2026-04-22 18:20 | 52.61853 | 10.61440 | 29489 ft | 428 kts | 165° |
| 2026-04-22 18:20 | 52.58921 | 10.62334 | 29858 ft | 430 kts | 165° |
| 2026-04-22 18:21 | 52.55965 | 10.63235 | 30208 ft | 432 kts | 165° |
| 2026-04-22 18:21 | 52.52996 | 10.64138 | 30537 ft | 434 kts | 165° |
| 2026-04-22 18:21 | 52.50019 | 10.65042 | 30828 ft | 436 kts | 165° |
| 2026-04-22 18:21 | 52.47026 | 10.65950 | 31119 ft | 439 kts | 165° |
| 2026-04-22 18:22 | 52.44007 | 10.66864 | 31423 ft | 440 kts | 165° |
| 2026-04-22 18:22 | 52.41033 | 10.67763 | 31786 ft | 440 kts | 165° |
| 2026-04-22 18:22 | 52.38027 | 10.68669 | 32166 ft | 440 kts | 164° |
| 2026-04-22 18:22 | 52.35019 | 10.69574 | 32550 ft | 439 kts | 164° |
| 2026-04-22 18:23 | 52.32010 | 10.70480 | 32912 ft | 439 kts | 164° |
| 2026-04-22 18:23 | 52.29008 | 10.71382 | 33270 ft | 439 kts | 164° |
| 2026-04-22 18:23 | 52.26004 | 10.72284 | 33624 ft | 438 kts | 164° |
| 2026-04-22 18:24 | 52.20005 | 10.74081 | 34286 ft | 438 kts | 163° |
| 2026-04-22 18:24 | 52.17010 | 10.74978 | 34545 ft | 438 kts | 163° |
| 2026-04-22 18:24 | 52.10995 | 10.76776 | 34956 ft | 441 kts | 164° |
| 2026-04-22 18:25 | 52.07971 | 10.77678 | 35145 ft | 442 kts | 164° |
| 2026-04-22 18:25 | 52.04935 | 10.78581 | 35303 ft | 444 kts | 164° |
| 2026-04-22 18:25 | 52.01890 | 10.79485 | 35319 ft | 444 kts | 165° |
| 2026-04-22 18:26 | 51.92766 | 10.82188 | 35323 ft | 444 kts | 165° |
| 2026-04-22 18:26 | 51.86676 | 10.83988 | 35333 ft | 445 kts | 165° |
| 2026-04-22 18:27 | 51.80577 | 10.85785 | 35333 ft | 445 kts | 165° |
| 2026-04-22 18:27 | 51.74504 | 10.87711 | 35330 ft | 442 kts | 158° |
| 2026-04-22 18:28 | 51.69132 | 10.92084 | 35323 ft | 428 kts | 137° |
| 2026-04-22 18:28 | 51.65233 | 10.99021 | 35320 ft | 418 kts | 118° |
| 2026-04-22 18:29 | 51.62850 | 11.07494 | 35322 ft | 414 kts | 109° |
| 2026-04-22 18:29 | 51.60684 | 11.16094 | 35329 ft | 415 kts | 109° |
| 2026-04-22 18:30 | 51.57416 | 11.28908 | 35336 ft | 415 kts | 109° |
| 2026-04-22 18:31 | 51.55215 | 11.37495 | 35341 ft | 415 kts | 109° |
| 2026-04-22 18:31 | 51.53013 | 11.46055 | 35324 ft | 412 kts | 110° |
| 2026-04-22 18:32 | 51.50831 | 11.54504 | 35321 ft | 412 kts | 110° |
| 2026-04-22 18:32 | 51.48630 | 11.62998 | 35323 ft | 412 kts | 110° |
| 2026-04-22 18:33 | 51.46425 | 11.71475 | 35324 ft | 412 kts | 110° |
| 2026-04-22 18:33 | 51.44216 | 11.79936 | 35311 ft | 411 kts | 110° |
| 2026-04-22 18:34 | 51.42002 | 11.88383 | 35307 ft | 411 kts | 110° |
| 2026-04-22 18:34 | 51.39783 | 11.96814 | 35298 ft | 410 kts | 110° |
| 2026-04-22 18:35 | 51.37559 | 12.05237 | 35296 ft | 410 kts | 110° |
| 2026-04-22 18:35 | 51.35334 | 12.13630 | 35288 ft | 410 kts | 110° |
| 2026-04-22 18:36 | 51.33102 | 12.22021 | 35290 ft | 409 kts | 110° |
| 2026-04-22 18:36 | 51.30866 | 12.30394 | 35289 ft | 409 kts | 110° |
| 2026-04-22 18:37 | 51.28627 | 12.38753 | 35299 ft | 409 kts | 110° |
| 2026-04-22 18:37 | 51.26761 | 12.45692 | 35301 ft | 409 kts | 110° |
| 2026-04-22 18:38 | 51.24130 | 12.55443 | 35311 ft | 409 kts | 110° |
| 2026-04-22 18:38 | 51.21887 | 12.63724 | 35313 ft | 409 kts | 110° |
| 2026-04-22 18:39 | 51.18493 | 12.76198 | 35314 ft | 409 kts | 110° |
| 2026-04-22 18:39 | 51.16219 | 12.84517 | 35310 ft | 409 kts | 110° |
| 2026-04-22 18:40 | 51.13942 | 12.92820 | 35316 ft | 409 kts | 110° |
| 2026-04-22 18:40 | 51.11656 | 13.01123 | 35314 ft | 409 kts | 110° |
| 2026-04-22 18:41 | 51.09380 | 13.09365 | 35306 ft | 409 kts | 110° |
| 2026-04-22 18:41 | 51.07083 | 13.17649 | 35296 ft | 409 kts | 110° |
| 2026-04-22 18:42 | 51.04783 | 13.25920 | 35295 ft | 409 kts | 110° |
| 2026-04-22 18:42 | 51.02476 | 13.34183 | 35287 ft | 408 kts | 110° |
| 2026-04-22 18:43 | 51.00179 | 13.42382 | 35294 ft | 408 kts | 110° |
| 2026-04-22 18:43 | 50.97868 | 13.50600 | 35281 ft | 408 kts | 110° |
| 2026-04-22 18:44 | 50.95553 | 13.58807 | 35274 ft | 407 kts | 110° |
| 2026-04-22 18:44 | 50.93232 | 13.67007 | 35270 ft | 407 kts | 110° |
| 2026-04-22 18:45 | 50.91284 | 13.73866 | 35275 ft | 407 kts | 110° |
| 2026-04-22 18:45 | 50.88958 | 13.82031 | 35277 ft | 407 kts | 110° |
| 2026-04-22 18:46 | 50.86624 | 13.90195 | 35273 ft | 406 kts | 110° |
| 2026-04-22 18:46 | 50.83966 | 13.98113 | 35273 ft | 411 kts | 119° |
| 2026-04-22 18:47 | 50.80302 | 14.05127 | 35268 ft | 419 kts | 130° |
| 2026-04-22 18:47 | 50.75972 | 14.11360 | 35262 ft | 420 kts | 132° |
| 2026-04-22 18:48 | 50.71680 | 14.17553 | 35258 ft | 421 kts | 132° |
| 2026-04-22 18:48 | 50.67347 | 14.23789 | 35257 ft | 421 kts | 132° |
| 2026-04-22 18:49 | 50.63006 | 14.30015 | 35261 ft | 422 kts | 132° |
| 2026-04-22 18:49 | 50.58655 | 14.36237 | 35261 ft | 423 kts | 132° |
| 2026-04-22 18:50 | 50.54300 | 14.42449 | 35262 ft | 423 kts | 132° |
| 2026-04-22 18:50 | 50.49933 | 14.48662 | 35262 ft | 424 kts | 132° |
| 2026-04-22 18:51 | 50.45553 | 14.54878 | 35256 ft | 424 kts | 132° |
| 2026-04-22 18:51 | 50.41302 | 14.61281 | 35258 ft | 423 kts | 130° |
| 2026-04-22 18:52 | 50.37097 | 14.67743 | 35259 ft | 424 kts | 130° |
| 2026-04-22 18:52 | 50.32863 | 14.74173 | 35261 ft | 424 kts | 130° |
| 2026-04-22 18:53 | 50.28613 | 14.80584 | 35262 ft | 425 kts | 130° |
| 2026-04-22 18:53 | 50.24351 | 14.86995 | 35265 ft | 425 kts | 130° |
| 2026-04-22 18:54 | 50.20080 | 14.93403 | 35262 ft | 426 kts | 130° |
| 2026-04-22 18:54 | 50.15832 | 14.99760 | 35258 ft | 426 kts | 130° |
| 2026-04-22 18:55 | 50.11549 | 15.06154 | 35252 ft | 426 kts | 130° |
| 2026-04-22 18:55 | 50.07236 | 15.12574 | 35248 ft | 426 kts | 130° |
| 2026-04-22 18:56 | 50.02976 | 15.18901 | 35251 ft | 426 kts | 130° |
| 2026-04-22 18:56 | 49.98674 | 15.25273 | 35241 ft | 427 kts | 130° |
| 2026-04-22 18:57 | 49.94374 | 15.31624 | 35234 ft | 427 kts | 130° |
| 2026-04-22 18:57 | 49.90071 | 15.37965 | 35228 ft | 427 kts | 131° |
| 2026-04-22 18:58 | 49.85758 | 15.44303 | 35226 ft | 427 kts | 131° |
| 2026-04-22 18:58 | 49.81434 | 15.50641 | 35189 ft | 427 kts | 131° |
| 2026-04-22 18:59 | 49.79271 | 15.53806 | 34914 ft | 428 kts | 130° |
| 2026-04-22 18:59 | 49.77109 | 15.56963 | 34466 ft | 426 kts | 130° |
| 2026-04-22 18:59 | 49.74963 | 15.60090 | 33958 ft | 422 kts | 130° |
| 2026-04-22 18:59 | 49.72839 | 15.63182 | 33410 ft | 417 kts | 130° |
| 2026-04-22 19:00 | 49.70734 | 15.66244 | 32871 ft | 415 kts | 130° |
| 2026-04-22 19:00 | 49.68634 | 15.69303 | 32345 ft | 416 kts | 130° |
| 2026-04-22 19:00 | 49.66545 | 15.72342 | 31752 ft | 419 kts | 130° |
| 2026-04-22 19:00 | 49.64423 | 15.75422 | 31117 ft | 418 kts | 130° |
| 2026-04-22 19:01 | 49.62311 | 15.78478 | 30500 ft | 415 kts | 130° |
| 2026-04-22 19:01 | 49.60209 | 15.81514 | 29807 ft | 411 kts | 130° |
| 2026-04-22 19:01 | 49.58129 | 15.84515 | 29098 ft | 408 kts | 130° |
| 2026-04-22 19:01 | 49.56056 | 15.87507 | 28396 ft | 405 kts | 130° |
| 2026-04-22 19:02 | 49.54007 | 15.90459 | 27715 ft | 402 kts | 130° |
| 2026-04-22 19:02 | 49.51983 | 15.93370 | 27042 ft | 393 kts | 131° |
| 2026-04-22 19:02 | 49.50012 | 15.96200 | 26402 ft | 383 kts | 131° |
| 2026-04-22 19:02 | 49.48082 | 15.98969 | 25772 ft | 375 kts | 131° |
| 2026-04-22 19:03 | 49.46196 | 16.01675 | 25156 ft | 367 kts | 131° |
| 2026-04-22 19:03 | 49.44348 | 16.04325 | 24587 ft | 359 kts | 131° |
| 2026-04-22 19:03 | 49.42537 | 16.06919 | 24037 ft | 352 kts | 131° |
| 2026-04-22 19:03 | 49.40760 | 16.09462 | 23436 ft | 346 kts | 131° |
| 2026-04-22 19:04 | 49.39010 | 16.11965 | 22812 ft | 342 kts | 131° |
| 2026-04-22 19:04 | 49.37281 | 16.14438 | 22189 ft | 344 kts | 131° |
| 2026-04-22 19:04 | 49.35526 | 16.16945 | 21670 ft | 343 kts | 131° |
| 2026-04-22 19:04 | 49.33798 | 16.19403 | 21359 ft | 335 kts | 131° |
| 2026-04-22 19:05 | 49.32093 | 16.21799 | 20853 ft | 332 kts | 133° |
| 2026-04-22 19:05 | 49.30211 | 16.23949 | 20352 ft | 342 kts | 142° |
| 2026-04-22 19:05 | 49.28107 | 16.25695 | 19849 ft | 347 kts | 149° |
| 2026-04-22 19:05 | 49.25927 | 16.27282 | 19367 ft | 347 kts | 149° |
| 2026-04-22 19:06 | 49.23745 | 16.28890 | 18875 ft | 348 kts | 149° |
| 2026-04-22 19:06 | 49.21567 | 16.30502 | 18385 ft | 348 kts | 149° |
| 2026-04-22 19:06 | 49.19387 | 16.32117 | 17841 ft | 348 kts | 149° |
| 2026-04-22 19:07 | 49.15072 | 16.35303 | 16754 ft | 337 kts | 149° |
| 2026-04-22 19:07 | 49.12982 | 16.36843 | 16235 ft | 332 kts | 149° |
| 2026-04-22 19:07 | 49.10913 | 16.38368 | 15697 ft | 327 kts | 149° |
| 2026-04-22 19:07 | 49.08884 | 16.39864 | 15168 ft | 322 kts | 149° |
| 2026-04-22 19:08 | 49.06859 | 16.41357 | 14656 ft | 323 kts | 150° |
| 2026-04-22 19:08 | 49.04844 | 16.42842 | 14135 ft | 320 kts | 150° |
| 2026-04-22 19:08 | 49.02853 | 16.44306 | 13587 ft | 316 kts | 150° |
| 2026-04-22 19:08 | 49.00885 | 16.45751 | 13304 ft | 315 kts | 150° |
| 2026-04-22 19:09 | 48.98902 | 16.47208 | 13217 ft | 317 kts | 150° |
| 2026-04-22 19:09 | 48.96921 | 16.48659 | 13215 ft | 315 kts | 150° |
| 2026-04-22 19:09 | 48.95610 | 16.49618 | 13213 ft | 315 kts | 150° |
| 2026-04-22 19:09 | 48.92992 | 16.51533 | 13213 ft | 316 kts | 150° |
| 2026-04-22 19:10 | 48.91009 | 16.52982 | 13216 ft | 316 kts | 150° |
| 2026-04-22 19:10 | 48.89030 | 16.54426 | 13214 ft | 316 kts | 150° |
| 2026-04-22 19:10 | 48.87048 | 16.55871 | 13210 ft | 316 kts | 150° |
| 2026-04-22 19:10 | 48.85065 | 16.57316 | 13212 ft | 316 kts | 151° |
| 2026-04-22 19:11 | 48.83082 | 16.58760 | 13213 ft | 316 kts | 151° |
| 2026-04-22 19:11 | 48.81101 | 16.60201 | 13212 ft | 316 kts | 151° |
| 2026-04-22 19:11 | 48.79113 | 16.61645 | 13213 ft | 316 kts | 151° |
| 2026-04-22 19:11 | 48.77166 | 16.63153 | 13212 ft | 313 kts | 144° |
| 2026-04-22 19:12 | 48.75420 | 16.65035 | 13206 ft | 306 kts | 138° |
| 2026-04-22 19:12 | 48.73708 | 16.66800 | 13206 ft | 294 kts | 153° |
| 2026-04-22 19:12 | 48.71753 | 16.67419 | 13204 ft | 283 kts | 181° |
| 2026-04-22 19:12 | 48.69838 | 16.66674 | 13210 ft | 290 kts | 209° |
| 2026-04-22 19:13 | 48.68251 | 16.64821 | 13206 ft | 288 kts | 225° |
| 2026-04-22 19:13 | 48.66793 | 16.62748 | 13209 ft | 287 kts | 225° |
| 2026-04-22 19:13 | 48.65344 | 16.60679 | 13212 ft | 287 kts | 225° |
| 2026-04-22 19:13 | 48.63891 | 16.58606 | 13198 ft | 286 kts | 225° |
| 2026-04-22 19:14 | 48.62445 | 16.56548 | 12964 ft | 283 kts | 225° |
| 2026-04-22 19:14 | 48.61005 | 16.54502 | 12413 ft | 285 kts | 225° |
| 2026-04-22 19:14 | 48.59551 | 16.52438 | 11818 ft | 287 kts | 225° |
| 2026-04-22 19:14 | 48.58087 | 16.50371 | 11242 ft | 288 kts | 225° |
| 2026-04-22 19:15 | 48.57118 | 16.49008 | 10908 ft | 287 kts | 225° |
| 2026-04-22 19:15 | 48.55175 | 16.46289 | 10273 ft | 283 kts | 225° |
| 2026-04-22 19:15 | 48.53739 | 16.44291 | 9772 ft | 279 kts | 225° |
| 2026-04-22 19:15 | 48.52246 | 16.42437 | 9254 ft | 278 kts | 210° |
| 2026-04-22 19:16 | 48.50439 | 16.41609 | 8762 ft | 276 kts | 182° |
| 2026-04-22 19:16 | 48.48591 | 16.42098 | 8321 ft | 267 kts | 154° |
| 2026-04-22 19:16 | 48.46954 | 16.43336 | 7951 ft | 261 kts | 148° |
| 2026-04-22 19:16 | 48.45371 | 16.44652 | 7656 ft | 259 kts | 149° |
| 2026-04-22 19:17 | 48.43774 | 16.45910 | 7330 ft | 259 kts | 151° |
| 2026-04-22 19:17 | 48.42152 | 16.47099 | 7005 ft | 260 kts | 153° |
| 2026-04-22 19:17 | 48.40511 | 16.48242 | 6679 ft | 260 kts | 153° |
| 2026-04-22 19:17 | 48.38864 | 16.49359 | 6344 ft | 259 kts | 154° |
| 2026-04-22 19:18 | 48.37217 | 16.50464 | 6065 ft | 256 kts | 154° |
| 2026-04-22 19:18 | 48.35614 | 16.51535 | 5998 ft | 252 kts | 154° |
| 2026-04-22 19:18 | 48.33994 | 16.52619 | 5997 ft | 255 kts | 154° |
| 2026-04-22 19:18 | 48.32378 | 16.53702 | 6000 ft | 254 kts | 154° |
| 2026-04-22 19:19 | 48.30760 | 16.54786 | 5998 ft | 255 kts | 154° |
| 2026-04-22 19:19 | 48.29162 | 16.55856 | 5997 ft | 255 kts | 154° |
| 2026-04-22 19:19 | 48.27544 | 16.56939 | 5997 ft | 255 kts | 154° |
| 2026-04-22 19:19 | 48.25924 | 16.58022 | 6000 ft | 255 kts | 154° |
| 2026-04-22 19:20 | 48.24304 | 16.59105 | 5997 ft | 255 kts | 154° |
| 2026-04-22 19:20 | 48.22680 | 16.60189 | 5999 ft | 256 kts | 154° |
| 2026-04-22 19:20 | 48.21036 | 16.61286 | 6001 ft | 256 kts | 154° |
| 2026-04-22 19:20 | 48.19436 | 16.62368 | 5991 ft | 254 kts | 150° |
| 2026-04-22 19:21 | 48.18094 | 16.64019 | 5738 ft | 249 kts | 122° |
| 2026-04-22 19:21 | 48.17275 | 16.66288 | 5366 ft | 248 kts | 111° |
| 2026-04-22 19:21 | 48.16525 | 16.68627 | 4988 ft | 250 kts | 111° |
| 2026-04-22 19:21 | 48.15766 | 16.70967 | 4580 ft | 247 kts | 111° |
| 2026-04-22 19:22 | 48.15021 | 16.73236 | 4258 ft | 241 kts | 111° |
| 2026-04-22 19:22 | 48.14281 | 16.75472 | 4038 ft | 236 kts | 111° |
| 2026-04-22 19:22 | 48.13572 | 16.77603 | 3990 ft | 221 kts | 111° |
| 2026-04-22 19:22 | 48.12893 | 16.79644 | 3999 ft | 221 kts | 111° |
| 2026-04-22 19:23 | 48.12212 | 16.81706 | 3995 ft | 220 kts | 111° |
| 2026-04-22 19:23 | 48.11534 | 16.83754 | 3993 ft | 220 kts | 111° |
| 2026-04-22 19:23 | 48.10855 | 16.85803 | 3995 ft | 219 kts | 111° |
| 2026-04-22 19:23 | 48.10177 | 16.87844 | 3989 ft | 219 kts | 111° |
| 2026-04-22 19:24 | 48.09498 | 16.89885 | 3990 ft | 219 kts | 111° |
| 2026-04-22 19:24 | 48.08816 | 16.91932 | 3977 ft | 219 kts | 111° |
| 2026-04-22 19:24 | 48.08135 | 16.93975 | 3973 ft | 219 kts | 111° |
| 2026-04-22 19:24 | 48.07453 | 16.96011 | 3975 ft | 220 kts | 114° |
| 2026-04-22 19:25 | 48.06405 | 16.97693 | 3981 ft | 228 kts | 148° |
| 2026-04-22 19:25 | 48.04877 | 16.98292 | 3977 ft | 231 kts | 184° |
| 2026-04-22 19:25 | 48.03337 | 16.97688 | 3973 ft | 227 kts | 204° |
| 2026-04-22 19:25 | 48.01933 | 16.96817 | 3940 ft | 209 kts | 205° |
| 2026-04-22 19:26 | 48.00610 | 16.95989 | 3590 ft | 205 kts | 206° |
| 2026-04-22 19:26 | 47.99524 | 16.94740 | 3167 ft | 198 kts | 239° |
| 2026-04-22 19:26 | 47.99061 | 16.92985 | 2977 ft | 168 kts | 283° |
| 2026-04-22 19:26 | 47.99514 | 16.91534 | 2998 ft | 157 kts | 312° |
| 2026-04-22 19:27 | 48.00139 | 16.90195 | 2987 ft | 153 kts | 309° |
| 2026-04-22 19:27 | 48.00503 | 16.89286 | 2986 ft | 155 kts | 306° |
| 2026-04-22 19:27 | 48.01005 | 16.87859 | 2992 ft | 156 kts | 303° |
| 2026-04-22 19:27 | 48.01482 | 16.86403 | 2990 ft | 156 kts | 303° |
| 2026-04-22 19:28 | 48.02112 | 16.84476 | 2995 ft | 156 kts | 303° |
| 2026-04-22 19:28 | 48.02587 | 16.83023 | 2995 ft | 156 kts | 303° |
| 2026-04-22 19:28 | 48.02909 | 16.82040 | 2992 ft | 156 kts | 303° |
| 2026-04-22 19:28 | 48.03384 | 16.80586 | 2992 ft | 156 kts | 303° |
| 2026-04-22 19:29 | 48.03860 | 16.79132 | 2996 ft | 155 kts | 303° |
| 2026-04-22 19:29 | 48.04334 | 16.77683 | 2994 ft | 155 kts | 302° |
| 2026-04-22 19:29 | 48.04801 | 16.76255 | 2994 ft | 155 kts | 302° |
| 2026-04-22 19:29 | 48.05275 | 16.74805 | 2996 ft | 155 kts | 302° |
| 2026-04-22 19:30 | 48.05594 | 16.73826 | 2990 ft | 156 kts | 302° |
| 2026-04-22 19:30 | 48.06223 | 16.71899 | 2754 ft | 154 kts | 302° |
| 2026-04-22 19:30 | 48.06692 | 16.70465 | 2545 ft | 154 kts | 303° |
| 2026-04-22 19:30 | 48.07162 | 16.69025 | 2336 ft | 154 kts | 303° |
| 2026-04-22 19:31 | 48.07630 | 16.67592 | 2128 ft | 153 kts | 302° |
| 2026-04-22 19:31 | 48.08098 | 16.66159 | 1917 ft | 153 kts | 302° |
| 2026-04-22 19:31 | 48.08563 | 16.64734 | 1718 ft | 153 kts | 302° |
| 2026-04-22 19:31 | 48.09032 | 16.63301 | 1483 ft | 153 kts | 301° |
| 2026-04-22 19:32 | 48.09497 | 16.61875 | 1275 ft | 153 kts | 299° |
| 2026-04-22 19:32 | 48.09967 | 16.60435 | 1059 ft | 153 kts | 298° |
| 2026-04-22 19:32 | 48.10433 | 16.59006 | 838 ft | 155 kts | 298° |
| 2026-04-22 19:32 | 48.10901 | 16.57571 | 654 ft | 152 kts | 297° |
| 2026-04-22 19:33 | 48.11330 | 16.56265 | 599 ft | 114 kts | 296° |
| 2026-04-22 19:33 | 48.11506 | 16.55728 | 603 ft | 23 kts | 296° |
| 2026-04-22 19:33 | 48.11592 | 16.55492 | 598 ft | 29 kts | 302° |
| 2026-04-22 19:33 | 48.11731 | 16.55242 | 592 ft | 34 kts | 316° |
| 2026-04-22 19:34 | 48.11855 | 16.55148 | 592 ft | 0 kts | 4° |
| 2026-04-22 19:35 | 48.11865 | 16.55150 | 592 ft | 4 kts | 12° |
| 2026-04-22 19:35 | 48.11880 | 16.55218 | 592 ft | 10 kts | 114° |
| 2026-04-22 19:35 | 48.11840 | 16.55339 | 591 ft | 16 kts | 117° |
| 2026-04-22 19:36 | 48.11788 | 16.55494 | 594 ft | 17 kts | 114° |
| 2026-04-22 19:36 | 48.11737 | 16.55652 | 596 ft | 14 kts | 115° |
| 2026-04-22 19:36 | 48.11692 | 16.55792 | 598 ft | 15 kts | 116° |
| 2026-04-22 19:36 | 48.11645 | 16.55935 | 602 ft | 16 kts | 117° |
| 2026-04-22 19:37 | 48.11594 | 16.56094 | 600 ft | 17 kts | 114° |
| 2026-04-22 19:37 | 48.11637 | 16.56220 | 599 ft | 16 kts | 38° |
| 2026-04-22 19:37 | 48.11725 | 16.56292 | 599 ft | 9 kts | 28° |
| 2026-04-22 19:37 | 48.11756 | 16.56355 | 603 ft | 4 kts | 76° |
| 2026-04-22 19:38 | 48.11757 | 16.56369 | 620 ft | 2 kts | 88° |
| 2026-04-22 19:38 | 48.11750 | 16.56400 | 611 ft | 2 kts | 114° |
| 2026-04-22 19:38 | 48.11744 | 16.56416 | 618 ft | 3 kts | 116° |
| 2026-04-22 19:38 | 48.11735 | 16.56447 | 615 ft | 2 kts | 116° |
| 2026-04-22 19:39 | 48.11713 | 16.56508 | 625 ft | 17 kts | 117° |
| 2026-04-22 19:39 | 48.11671 | 16.56646 | 624 ft | 0 kts | 114° |
| 2026-04-22 19:39 | 48.11684 | 16.56682 | 621 ft | 10 kts | 51° |
| 2026-04-22 19:39 | 48.11750 | 16.56710 | 601 ft | 0 kts | 17° |